createdAt,value
2022-08-26T00:00:59.632Z,23.64
2022-08-26T00:03:02.485Z,23.54
2022-08-26T00:05:06.362Z,23.25
2022-08-26T00:07:09.347Z,22.99
2022-08-26T00:09:12.125Z,22.44
2022-08-26T00:11:15.561Z,22.33
2022-08-26T00:13:30.367Z,22.49
2022-08-26T00:15:33.728Z,22.65
2022-08-26T00:17:40.188Z,22.73
2022-08-26T00:19:43.246Z,23.01
2022-08-26T00:21:46.085Z,22.99
2022-08-26T00:23:48.937Z,22.87
2022-08-26T00:25:51.773Z,22.94
2022-08-26T00:27:54.827Z,23.11
2022-08-26T00:29:58.798Z,23.27
2022-08-26T00:32:04.068Z,23.34
2022-08-26T00:34:09.604Z,23.36
2022-08-26T00:36:20.122Z,23.28
2022-08-26T00:38:23.947Z,23.22
2022-08-26T00:40:30.163Z,23.33
2022-08-26T00:42:33.046Z,23.27
2022-08-26T00:44:35.897Z,23.20
2022-08-26T00:46:46.498Z,23.39
2022-08-26T00:48:53.476Z,23.46
2022-08-26T00:51:01.708Z,23.59
2022-08-26T00:53:21.444Z,23.62
2022-08-26T00:55:37.726Z,23.18
2022-08-26T00:57:41.240Z,23.02
2022-08-26T00:59:46.878Z,23.32
2022-08-26T01:01:51.489Z,23.36
2022-08-26T01:03:55.458Z,23.25
2022-08-26T01:06:02.299Z,22.91
2022-08-26T01:08:07.040Z,23.21
2022-08-26T01:10:16.174Z,22.77
2022-08-26T01:12:22.013Z,21.85
2022-08-26T01:14:27.743Z,21.45
2022-08-26T01:16:33.146Z,21.02
2022-08-26T01:18:36.813Z,20.63
2022-08-26T01:20:50.225Z,20.57
2022-08-26T01:22:58.414Z,21.43
2022-08-26T01:25:06.428Z,22.08
2022-08-26T01:27:13.630Z,22.38
2022-08-26T01:29:20.197Z,22.59
2022-08-26T01:31:25.811Z,19.94
2022-08-26T01:33:39.967Z,19.84
2022-08-26T01:35:45.729Z,19.73
2022-08-26T01:37:50.596Z,19.30
2022-08-26T01:39:58.904Z,19.15
2022-08-26T01:42:03.369Z,21.21
2022-08-26T01:44:09.747Z,21.78
2022-08-26T01:46:14.705Z,22.21
2022-08-26T01:48:25.075Z,22.43
2022-08-26T01:50:31.476Z,22.46
2022-08-26T01:52:39.426Z,22.56
2022-08-26T01:54:42.586Z,22.30
2022-08-26T01:56:51.995Z,22.12
2022-08-26T01:58:58.502Z,21.44
2022-08-26T02:01:01.478Z,20.43
2022-08-26T02:03:21.525Z,19.69
2022-08-26T02:05:24.970Z,20.12
2022-08-26T02:07:29.143Z,20.86
2022-08-26T02:09:32.420Z,21.11
2022-08-26T02:11:41.445Z,21.40
2022-08-26T02:13:49.481Z,21.54
2022-08-26T02:15:55.165Z,20.71
2022-08-26T02:17:58.134Z,19.63
2022-08-26T02:20:00.994Z,18.84
2022-08-26T02:22:06.931Z,18.32
2022-08-26T02:24:12.675Z,18.28
2022-08-26T02:26:19.385Z,19.22
2022-08-26T02:28:22.952Z,19.33
2022-08-26T02:30:33.591Z,19.20
2022-08-26T02:32:37.222Z,19.37
2022-08-26T02:34:43.035Z,19.42
2022-08-26T02:36:45.849Z,19.63
2022-08-26T02:38:49.144Z,19.68
2022-08-26T02:40:55.139Z,19.19
2022-08-26T02:42:58.303Z,19.45
2022-08-26T02:45:03.227Z,19.39
2022-08-26T02:47:09.406Z,19.91
2022-08-26T02:49:12.567Z,20.03
2022-08-26T02:51:15.443Z,20.35
2022-08-26T02:53:24.496Z,20.73
2022-08-26T02:55:27.953Z,20.97
2022-08-26T02:57:30.956Z,21.16
2022-08-26T02:59:35.910Z,21.33
2022-08-26T03:01:38.685Z,21.46
2022-08-26T03:03:42.800Z,20.77
2022-08-26T03:05:45.559Z,21.77
2022-08-26T03:07:48.679Z,21.95
2022-08-26T03:09:52.939Z,22.12
2022-08-26T03:11:56.022Z,22.25
2022-08-26T03:14:00.471Z,22.26
2022-08-26T03:16:05.589Z,22.21
2022-08-26T03:18:08.659Z,22.08
2022-08-26T03:20:13.612Z,22.08
2022-08-26T03:22:18.213Z,22.11
2022-08-26T03:24:23.276Z,21.78
2022-08-26T03:26:29.204Z,21.35
2022-08-26T03:28:32.841Z,21.10
2022-08-26T03:30:45.220Z,21.52
2022-08-26T03:32:48.570Z,21.53
2022-08-26T03:34:51.400Z,21.86
2022-08-26T03:36:55.632Z,21.86
2022-08-26T03:38:59.381Z,22.01
2022-08-26T03:41:02.588Z,22.12
2022-08-26T03:43:09.814Z,21.95
2022-08-26T03:45:14.036Z,21.77
2022-08-26T03:47:17.788Z,21.68
2022-08-26T03:49:20.532Z,20.20
2022-08-26T03:51:23.400Z,19.48
2022-08-26T03:53:28.705Z,19.76
2022-08-26T03:55:33.372Z,20.02
2022-08-26T03:57:36.320Z,20.51
2022-08-26T03:59:39.060Z,20.97
2022-08-26T04:01:44.229Z,21.25
2022-08-26T04:04:00.156Z,20.69
2022-08-26T04:06:03.516Z,19.38
2022-08-26T04:08:06.927Z,19.33
2022-08-26T04:10:12.748Z,20.22
2022-08-26T04:12:15.733Z,20.67
2022-08-26T04:14:21.535Z,21.05
2022-08-26T04:16:24.348Z,21.25
2022-08-26T04:18:36.888Z,21.01
2022-08-26T04:20:40.117Z,20.96
2022-08-26T04:22:43.052Z,20.59
2022-08-26T04:24:46.387Z,20.30
2022-08-26T04:26:50.794Z,20.62
2022-08-26T04:28:55.952Z,20.70
2022-08-26T04:30:59.145Z,20.86
2022-08-26T04:33:04.436Z,21.06
2022-08-26T04:35:16.223Z,20.78
2022-08-26T04:37:19.709Z,20.54
2022-08-26T04:39:25.281Z,20.31
2022-08-26T04:41:28.379Z,20.16
2022-08-26T04:43:36.959Z,20.06
2022-08-26T04:45:43.644Z,18.73
2022-08-26T04:47:46.738Z,19.84
2022-08-26T04:49:49.513Z,19.77
2022-08-26T04:51:53.450Z,19.76
2022-08-26T04:53:57.189Z,19.75
2022-08-26T04:56:00.284Z,19.68
2022-08-26T04:58:02.996Z,19.67
2022-08-26T05:00:11.855Z,19.64
2022-08-26T05:02:15.795Z,19.62
2022-08-26T05:04:20.112Z,19.60
2022-08-26T05:06:22.908Z,19.59
2022-08-26T05:08:25.988Z,19.57
2022-08-26T05:10:28.993Z,19.52
2022-08-26T05:12:33.065Z,19.50
2022-08-26T05:14:36.194Z,19.51
2022-08-26T05:16:40.979Z,19.50
2022-08-26T05:18:45.681Z,19.49
2022-08-26T05:20:51.732Z,18.27
2022-08-26T05:22:57.398Z,19.48
2022-08-26T05:25:00.126Z,18.72
2022-08-26T05:27:03.076Z,19.49
2022-08-26T05:29:10.329Z,19.46
2022-08-26T05:31:15.635Z,19.48
2022-08-26T05:33:23.228Z,19.48
2022-08-26T05:35:31.890Z,19.14
2022-08-26T05:37:34.649Z,19.52
2022-08-26T05:39:38.412Z,19.56
2022-08-26T05:41:44.789Z,19.58
2022-08-26T05:43:47.656Z,19.44
2022-08-26T05:45:51.917Z,19.45
2022-08-26T05:47:54.857Z,19.49
2022-08-26T05:49:59.006Z,19.49
2022-08-26T05:52:02.045Z,19.24
2022-08-26T05:54:06.632Z,19.61
2022-08-26T05:56:11.213Z,19.64
2022-08-26T05:58:14.528Z,19.69
2022-08-26T06:00:20.453Z,19.75
2022-08-26T06:02:23.897Z,19.18
2022-08-26T06:04:28.088Z,19.85
2022-08-26T06:06:35.827Z,19.41
2022-08-26T06:08:39.419Z,20.04
2022-08-26T06:10:47.651Z,20.11
2022-08-26T06:12:51.255Z,19.92
2022-08-26T06:14:55.011Z,20.27
2022-08-26T06:16:58.120Z,20.47
2022-08-26T06:19:00.962Z,20.58
2022-08-26T06:21:14.580Z,20.68
2022-08-26T06:23:37.964Z,20.72
2022-08-26T06:25:43.473Z,20.88
2022-08-26T06:27:46.248Z,20.85
2022-08-26T06:29:49.071Z,21.14
2022-08-26T06:31:52.024Z,21.22
2022-08-26T06:33:55.786Z,21.32
2022-08-26T06:35:59.028Z,21.38
2022-08-26T06:38:02.732Z,21.44
2022-08-26T06:40:09.451Z,21.55
2022-08-26T06:42:14.344Z,21.62
2022-08-26T06:44:18.306Z,21.64
2022-08-26T06:46:22.926Z,21.68
2022-08-26T06:48:25.744Z,21.72
2022-08-26T06:50:29.822Z,21.39
2022-08-26T06:52:33.026Z,21.85
2022-08-26T06:54:43.008Z,21.89
2022-08-26T06:56:47.907Z,21.99
2022-08-26T06:58:51.354Z,22.07
2022-08-26T07:00:54.103Z,21.80
2022-08-26T07:02:56.957Z,21.93
2022-08-26T07:04:59.773Z,22.33
2022-08-26T07:07:02.634Z,22.52
2022-08-26T07:09:09.799Z,22.52
2022-08-26T07:11:13.911Z,22.60
2022-08-26T07:13:18.235Z,22.70
2022-08-26T07:15:35.792Z,22.73
2022-08-26T07:17:38.780Z,22.90
2022-08-26T07:19:43.446Z,23.00
2022-08-26T07:21:46.287Z,23.13
2022-08-26T07:23:50.651Z,20.62
2022-08-26T07:25:53.395Z,23.27
2022-08-26T07:27:56.467Z,23.32
2022-08-26T07:30:01.091Z,23.40
2022-08-26T07:32:05.096Z,23.52
2022-08-26T07:34:09.329Z,23.67
2022-08-26T07:36:14.739Z,23.51
2022-08-26T07:38:17.575Z,23.85
2022-08-26T07:40:20.568Z,23.91
2022-08-26T07:42:23.519Z,23.99
2022-08-26T07:44:27.771Z,23.59
2022-08-26T07:46:31.937Z,24.20
2022-08-26T07:48:36.021Z,24.23
2022-08-26T07:50:49.224Z,24.36
2022-08-26T07:52:53.536Z,24.40
2022-08-26T07:54:57.994Z,24.48
2022-08-26T07:57:00.850Z,24.25
2022-08-26T07:59:13.675Z,24.60
2022-08-26T08:01:16.980Z,24.68
2022-08-26T08:03:21.591Z,24.80
2022-08-26T08:05:27.302Z,24.88
2022-08-26T08:07:45.005Z,24.96
2022-08-26T08:09:49.587Z,25.06
2022-08-26T08:11:53.660Z,24.92
2022-08-26T08:13:56.966Z,25.31
2022-08-26T08:16:00.517Z,25.38
2022-08-26T08:18:03.383Z,25.53
2022-08-26T08:20:09.534Z,25.68
2022-08-26T08:22:17.828Z,25.77
2022-08-26T08:24:22.644Z,25.87
2022-08-26T08:26:27.464Z,25.97
2022-08-26T08:28:30.359Z,25.95
2022-08-26T08:30:33.274Z,26.33
2022-08-26T08:32:39.186Z,26.52
2022-08-26T08:36:53.266Z,26.75
2022-08-26T08:38:56.833Z,26.91
2022-08-26T08:41:01.391Z,27.09
2022-08-26T08:43:13.529Z,27.20
2022-08-26T08:45:21.109Z,27.28
2022-08-26T08:47:32.149Z,27.46
2022-08-26T08:49:35.608Z,27.60
2022-08-26T08:51:43.578Z,27.80
2022-08-26T08:53:50.752Z,27.89
2022-08-26T08:56:06.123Z,27.11
2022-08-26T08:58:17.043Z,28.24
2022-08-26T09:00:30.339Z,28.40
2022-08-26T09:02:40.163Z,28.26
2022-08-26T09:05:06.628Z,28.54
2022-08-26T09:07:14.538Z,28.78
2022-08-26T09:09:24.896Z,28.46
2022-08-26T09:11:28.062Z,28.88
2022-08-26T09:13:31.907Z,28.37
2022-08-26T09:15:47.862Z,29.10
2022-08-26T09:18:01.590Z,29.29
2022-08-26T09:20:19.206Z,29.42
2022-08-26T09:22:33.253Z,29.50
2022-08-26T09:24:42.009Z,29.45
2022-08-26T09:26:52.648Z,29.04
2022-08-26T09:28:58.021Z,29.52
2022-08-26T09:31:11.766Z,29.46
2022-08-26T09:33:18.539Z,29.11
2022-08-26T09:35:27.098Z,30.17
2022-08-26T09:37:43.505Z,29.77
2022-08-26T09:39:48.219Z,30.36
2022-08-26T09:42:04.620Z,30.48
2022-08-26T09:44:17.620Z,30.68
2022-08-26T09:46:27.567Z,30.84
2022-08-26T09:48:36.123Z,30.95
2022-08-26T09:50:41.378Z,31.11
2022-08-26T09:52:46.183Z,31.22
2022-08-26T09:55:06.120Z,31.26
2022-08-26T09:57:22.271Z,31.37
2022-08-26T09:59:31.555Z,31.18
2022-08-26T10:01:37.880Z,31.63
2022-08-26T10:03:41.772Z,31.65
2022-08-26T10:05:55.259Z,31.83
2022-08-26T10:08:00.210Z,31.98
2022-08-26T10:10:09.289Z,31.97
2022-08-26T10:12:17.600Z,32.22
2022-08-26T10:14:25.415Z,32.18
2022-08-26T10:16:33.537Z,32.11
2022-08-26T10:18:41.302Z,31.94
2022-08-26T10:20:54.069Z,31.93
2022-08-26T10:23:02.726Z,31.92
2022-08-26T10:25:13.507Z,31.64
2022-08-26T10:27:26.841Z,31.80
2022-08-26T10:29:36.834Z,32.27
2022-08-26T10:31:42.416Z,31.76
2022-08-26T10:33:45.394Z,32.40
2022-08-26T10:35:52.720Z,32.59
2022-08-26T10:37:59.223Z,33.07
2022-08-26T10:40:08.638Z,33.22
2022-08-26T10:42:22.863Z,32.53
2022-08-26T10:44:27.582Z,32.56
2022-08-26T10:46:39.673Z,32.31
2022-08-26T10:48:48.969Z,31.47
2022-08-26T10:50:57.874Z,31.64
2022-08-26T10:53:08.770Z,31.86
2022-08-26T10:55:18.149Z,31.82
2022-08-26T10:57:30.122Z,32.01
2022-08-26T10:59:51.689Z,32.22
2022-08-26T11:02:00.756Z,32.74
2022-08-26T11:04:14.999Z,33.08
2022-08-26T11:06:26.091Z,33.09
2022-08-26T11:08:30.399Z,32.89
2022-08-26T11:10:58.889Z,32.43
2022-08-26T11:13:04.696Z,31.31
2022-08-26T11:15:08.238Z,29.90
2022-08-26T11:17:12.552Z,28.70
2022-08-26T11:20:00.289Z,28.55
2022-08-26T11:22:07.140Z,27.78
2022-08-26T11:24:09.949Z,27.79
2022-08-26T11:26:20.397Z,26.55
2022-08-26T11:28:44.184Z,26.55
2022-08-26T11:30:56.885Z,26.44
2022-08-26T11:33:01.210Z,25.77
2022-08-26T11:35:06.571Z,25.81
2022-08-26T11:37:16.716Z,25.72
2022-08-26T11:39:25.544Z,25.69
2022-08-26T11:41:31.331Z,26.08
2022-08-26T11:43:35.468Z,26.06
2022-08-26T11:45:42.734Z,26.23
2022-08-26T11:47:46.575Z,26.16
2022-08-26T11:50:06.412Z,26.26
2022-08-26T11:52:12.369Z,26.54
2022-08-26T11:54:18.172Z,26.25
2022-08-26T11:56:40.453Z,26.14
2022-08-26T11:58:45.542Z,26.33
2022-08-26T12:00:53.787Z,26.15
2022-08-26T12:03:02.303Z,25.55
2022-08-26T12:05:07.847Z,26.06
2022-08-26T12:07:11.959Z,26.07
2022-08-26T12:09:21.179Z,25.93
2022-08-26T12:11:26.339Z,26.06
2022-08-26T12:13:29.229Z,25.66
2022-08-26T12:15:35.474Z,25.94
2022-08-26T12:17:40.709Z,25.90
2022-08-26T12:19:44.231Z,26.25
2022-08-26T12:21:49.164Z,26.36
2022-08-26T12:23:54.559Z,26.73
2022-08-26T12:26:06.375Z,26.80
2022-08-26T12:28:10.728Z,27.27
2022-08-26T12:30:19.925Z,27.30
2022-08-26T12:32:25.332Z,26.27
2022-08-26T12:34:29.503Z,26.19
2022-08-26T12:36:36.132Z,26.48
2022-08-26T12:38:40.439Z,26.58
2022-08-26T12:40:45.181Z,26.88
2022-08-26T12:42:47.885Z,27.16
2022-08-26T12:44:59.300Z,27.42
2022-08-26T12:47:08.159Z,27.63
2022-08-26T12:49:11.035Z,27.77
2022-08-26T12:51:23.865Z,28.04
2022-08-26T12:53:28.836Z,27.83
2022-08-26T12:55:39.105Z,28.08
2022-08-26T12:57:42.063Z,28.44
2022-08-26T12:59:44.841Z,29.03
2022-08-26T13:01:48.503Z,29.15
2022-08-26T13:03:51.877Z,28.93
2022-08-26T13:06:08.646Z,29.30
2022-08-26T13:08:27.203Z,29.89
2022-08-26T13:10:36.391Z,30.00
2022-08-26T13:12:40.990Z,29.89
2022-08-26T13:14:43.723Z,30.34
2022-08-26T13:16:46.901Z,29.90
2022-08-26T13:18:51.400Z,29.54
2022-08-26T13:20:54.387Z,30.39
2022-08-26T13:22:58.725Z,30.76
2022-08-26T13:25:05.688Z,30.53
2022-08-26T13:27:10.332Z,30.73
2022-08-26T13:29:13.714Z,31.09
2022-08-26T13:31:17.417Z,30.94
2022-08-26T13:33:22.688Z,30.73
2022-08-26T13:35:25.490Z,30.87
2022-08-26T13:37:34.427Z,31.38
2022-08-26T13:39:38.144Z,31.55
2022-08-26T13:41:43.195Z,31.65
2022-08-26T13:43:45.966Z,31.00
2022-08-26T13:45:49.418Z,30.73
2022-08-26T13:47:52.253Z,30.44
2022-08-26T13:49:55.020Z,30.89
2022-08-26T13:51:57.775Z,31.23
2022-08-26T13:54:01.416Z,30.79
2022-08-26T13:56:06.954Z,30.66
2022-08-26T13:58:14.039Z,30.88
2022-08-26T14:00:17.849Z,30.33
2022-08-26T14:02:20.722Z,29.05
2022-08-26T14:04:27.342Z,29.78
2022-08-26T14:06:30.428Z,29.92
2022-08-26T14:08:33.283Z,30.12
2022-08-26T14:10:36.791Z,30.07
2022-08-26T14:12:40.782Z,30.17
2022-08-26T14:14:44.986Z,29.91
2022-08-26T14:16:56.093Z,28.74
2022-08-26T14:19:05.693Z,29.27
2022-08-26T14:21:10.239Z,29.54
2022-08-26T14:23:14.237Z,29.35
2022-08-26T14:25:17.882Z,29.09
2022-08-26T14:27:20.620Z,29.19
2022-08-26T14:29:23.409Z,29.19
2022-08-26T14:31:29.000Z,29.40
2022-08-26T14:33:34.857Z,29.72
2022-08-26T14:35:37.666Z,29.63
2022-08-26T14:37:40.481Z,29.84
2022-08-26T14:39:43.271Z,29.61
2022-08-26T14:41:54.070Z,29.87
2022-08-26T14:44:01.419Z,29.82
2022-08-26T14:46:05.057Z,29.84
2022-08-26T14:48:09.627Z,29.04
2022-08-26T14:50:14.239Z,29.56
2022-08-26T14:52:17.513Z,29.37
2022-08-26T14:54:20.644Z,29.07
2022-08-26T14:56:23.674Z,29.33
2022-08-26T14:58:28.592Z,29.47
2022-08-26T15:00:38.208Z,29.09
2022-08-26T15:02:41.330Z,29.57
2022-08-26T15:04:45.568Z,29.93
2022-08-26T15:06:48.770Z,29.45
2022-08-26T15:08:51.538Z,29.89
2022-08-26T15:10:54.293Z,30.18
2022-08-26T15:12:57.087Z,30.21
2022-08-26T15:15:00.134Z,30.39
2022-08-26T15:17:02.956Z,30.54
2022-08-26T15:19:06.292Z,30.83
2022-08-26T15:21:10.451Z,31.28
2022-08-26T15:23:14.653Z,31.35
2022-08-26T15:25:18.050Z,31.00
2022-08-26T15:27:21.197Z,31.21
2022-08-26T15:29:24.883Z,31.58
2022-08-26T15:31:31.202Z,31.98
2022-08-26T15:33:34.357Z,32.00
2022-08-26T15:35:38.488Z,32.05
2022-08-26T15:37:46.856Z,32.07
2022-08-26T15:39:50.472Z,31.07
2022-08-26T15:41:53.268Z,31.04
2022-08-26T15:43:56.355Z,31.40
2022-08-26T15:46:00.092Z,31.56
2022-08-26T15:48:03.417Z,31.27
2022-08-26T15:50:07.747Z,30.59
2022-08-26T15:52:10.654Z,29.94
2022-08-26T15:54:15.964Z,28.42
2022-08-26T15:56:19.249Z,30.20
2022-08-26T15:58:23.013Z,30.64
2022-08-26T16:00:27.504Z,30.06
2022-08-26T16:02:32.295Z,30.57
2022-08-26T16:04:35.257Z,30.38
2022-08-26T16:06:40.462Z,31.12
2022-08-26T16:08:43.209Z,31.01
2022-08-26T16:10:50.554Z,30.58
2022-08-26T16:12:53.813Z,31.82
2022-08-26T16:14:56.574Z,30.83
2022-08-26T16:16:59.327Z,30.47
2022-08-26T16:19:05.624Z,30.00
2022-08-26T16:21:15.512Z,29.74
2022-08-26T16:23:18.775Z,28.57
2022-08-26T16:25:21.693Z,29.12
2022-08-26T16:27:25.837Z,29.55
2022-08-26T16:29:28.740Z,29.23
2022-08-26T16:31:31.699Z,28.53
2022-08-26T16:33:34.515Z,28.71
2022-08-26T16:35:37.261Z,28.37
2022-08-26T16:37:40.277Z,28.42
2022-08-26T16:39:45.065Z,27.96
2022-08-26T16:41:48.119Z,27.73
2022-08-26T16:43:55.069Z,27.41
2022-08-26T16:45:57.934Z,26.95
2022-08-26T16:48:00.757Z,26.22
2022-08-26T16:50:04.336Z,26.48
2022-08-26T16:52:08.652Z,26.84
2022-08-26T16:54:11.427Z,26.76
2022-08-26T16:56:14.656Z,26.23
2022-08-26T16:58:18.301Z,27.11
2022-08-26T17:00:27.614Z,27.05
2022-08-26T17:02:30.486Z,26.56
2022-08-26T17:04:33.289Z,25.89
2022-08-26T17:06:36.143Z,25.72
2022-08-26T17:08:39.226Z,25.13
2022-08-26T17:12:45.765Z,25.33
2022-08-26T17:14:48.596Z,24.94
2022-08-26T17:16:53.544Z,25.17
2022-08-26T17:18:57.285Z,24.58
2022-08-26T17:21:01.969Z,24.62
2022-08-26T17:23:05.274Z,23.67
2022-08-26T17:25:11.796Z,24.76
2022-08-26T17:27:14.656Z,24.47
2022-08-26T17:29:17.428Z,24.03
2022-08-26T17:31:20.777Z,23.87
2022-08-26T17:33:25.276Z,24.28
2022-08-26T17:35:28.226Z,23.75
2022-08-26T17:37:31.299Z,23.27
2022-08-26T17:39:34.053Z,23.48
2022-08-26T17:41:36.813Z,23.25
2022-08-26T17:43:40.301Z,23.36
2022-08-26T17:45:43.302Z,23.75
2022-08-26T17:47:46.103Z,23.90
2022-08-26T17:49:50.251Z,23.97
2022-08-26T17:51:53.059Z,23.87
2022-08-26T17:53:55.872Z,21.73
2022-08-26T17:55:58.643Z,23.91
2022-08-26T17:58:03.934Z,24.21
2022-08-26T18:00:14.542Z,24.08
2022-08-26T18:02:17.455Z,23.82
2022-08-26T18:04:20.369Z,24.14
2022-08-26T18:06:25.771Z,23.85
2022-08-26T18:08:28.728Z,24.01
2022-08-26T18:10:31.475Z,24.20
2022-08-26T18:12:34.336Z,21.68
2022-08-26T18:14:37.263Z,23.41
2022-08-26T18:16:41.612Z,24.10
2022-08-26T18:18:44.624Z,23.43
2022-08-26T18:21:01.242Z,23.51
2022-08-26T18:23:06.125Z,23.86
2022-08-26T18:25:10.241Z,23.78
2022-08-26T18:27:15.766Z,23.31
2022-08-26T18:29:20.349Z,23.93
2022-08-26T18:31:23.213Z,24.40
2022-08-26T18:33:26.016Z,24.35
2022-08-26T18:35:30.227Z,24.01
2022-08-26T18:37:34.135Z,24.15
2022-08-26T18:39:38.236Z,23.91
2022-08-26T18:41:43.311Z,24.07
2022-08-26T18:43:46.067Z,23.68
2022-08-26T18:45:48.824Z,24.23
2022-08-26T18:47:51.648Z,24.07
2022-08-26T18:49:54.810Z,24.56
2022-08-26T18:51:57.552Z,23.88
2022-08-26T18:54:02.415Z,23.72
2022-08-26T18:56:06.866Z,23.78
2022-08-26T18:58:09.719Z,23.15
2022-08-26T19:00:14.554Z,23.59
2022-08-26T19:02:17.600Z,23.33
2022-08-26T19:04:21.995Z,23.50
2022-08-26T19:06:27.038Z,23.94
2022-08-26T19:08:30.148Z,24.04
2022-08-26T19:10:32.988Z,24.32
2022-08-26T19:12:37.265Z,23.64
2022-08-26T19:14:40.096Z,23.79
2022-08-26T19:16:45.126Z,23.35
2022-08-26T19:18:48.158Z,23.32
2022-08-26T19:20:50.861Z,23.47
2022-08-26T19:22:53.632Z,23.32
2022-08-26T19:24:56.440Z,24.03
2022-08-26T19:27:01.586Z,24.21
2022-08-26T19:29:05.769Z,23.91
2022-08-26T19:31:12.937Z,24.20
2022-08-26T19:33:16.811Z,24.28
2022-08-26T19:35:19.741Z,24.46
2022-08-26T19:37:23.052Z,23.37
2022-08-26T19:39:26.438Z,23.03
2022-08-26T19:41:36.912Z,22.47
2022-08-26T19:43:40.551Z,22.81
2022-08-26T19:45:45.223Z,23.00
2022-08-26T19:47:48.781Z,22.98
2022-08-26T19:49:54.138Z,22.91
2022-08-26T19:51:56.923Z,23.01
2022-08-26T19:54:01.718Z,23.28
2022-08-26T19:56:04.867Z,23.60
2022-08-26T19:58:07.961Z,23.57
2022-08-26T20:00:14.725Z,23.87
2022-08-26T20:02:19.218Z,24.13
2022-08-26T20:04:22.293Z,24.34
2022-08-26T20:06:25.171Z,23.00
2022-08-26T20:08:28.621Z,23.57
2022-08-26T20:10:35.193Z,23.58
2022-08-26T20:12:37.997Z,22.66
2022-08-26T20:14:40.852Z,22.80
2022-08-26T20:16:44.588Z,23.54
2022-08-26T20:19:06.136Z,23.52
2022-08-26T20:21:27.162Z,23.15
2022-08-26T20:23:30.152Z,23.79
2022-08-26T20:25:34.043Z,23.45
2022-08-26T20:27:38.250Z,23.94
2022-08-26T20:29:42.960Z,24.05
2022-08-26T20:31:46.861Z,24.40
2022-08-26T20:33:51.693Z,23.79
2022-08-26T20:35:54.640Z,24.69
2022-08-26T20:37:57.485Z,24.79
2022-08-26T20:40:00.757Z,24.88
2022-08-26T20:42:04.328Z,24.93
2022-08-26T20:44:09.310Z,24.83
2022-08-26T20:46:18.797Z,24.83
2022-08-26T20:48:23.546Z,24.85
2022-08-26T20:50:28.047Z,22.99
2022-08-26T20:52:30.858Z,23.55
2022-08-26T20:54:33.667Z,24.00
2022-08-26T20:56:37.501Z,24.30
2022-08-26T20:58:41.026Z,24.39
2022-08-26T21:00:43.992Z,24.53
2022-08-26T21:02:47.026Z,24.32
2022-08-26T21:04:49.980Z,24.69
2022-08-26T21:06:55.401Z,24.37
2022-08-26T21:08:58.428Z,24.30
2022-08-26T21:11:01.987Z,23.95
2022-08-26T21:13:07.762Z,24.12
2022-08-26T21:15:12.051Z,23.79
2022-08-26T21:17:15.062Z,24.27
2022-08-26T21:19:19.886Z,24.18
2022-08-26T21:21:25.277Z,23.90
2022-08-26T21:23:29.553Z,23.44
2022-08-26T21:25:32.380Z,23.21
2022-08-26T21:27:35.564Z,22.93
2022-08-26T21:29:38.409Z,22.82
2022-08-26T21:31:46.010Z,22.54
2022-08-26T21:33:50.972Z,22.69
2022-08-26T21:35:54.668Z,21.59
2022-08-26T21:37:57.429Z,21.62
2022-08-26T21:40:03.510Z,21.89
2022-08-26T21:42:06.542Z,21.99
2022-08-26T21:44:10.103Z,21.39
2022-08-26T21:46:15.681Z,21.25
2022-08-26T21:48:18.448Z,21.54
2022-08-26T21:50:21.285Z,21.32
2022-08-26T21:52:25.437Z,21.36
2022-08-26T21:54:28.192Z,21.33
2022-08-26T21:56:34.490Z,20.82
2022-08-26T21:58:37.513Z,20.80
2022-08-26T22:00:46.515Z,20.97
2022-08-26T22:02:50.176Z,20.63
2022-08-26T22:04:52.972Z,20.34
2022-08-26T22:06:58.887Z,20.73
2022-08-26T22:09:01.832Z,20.66
2022-08-26T22:11:05.516Z,20.71
2022-08-26T22:13:10.775Z,20.31
2022-08-26T22:15:14.175Z,20.17
2022-08-26T22:17:16.931Z,20.43
2022-08-26T22:19:20.919Z,20.59
2022-08-26T22:21:28.558Z,20.35
2022-08-26T22:23:31.378Z,20.31
2022-08-26T22:25:34.602Z,20.33
2022-08-26T22:27:40.442Z,20.49
2022-08-26T22:29:47.905Z,20.64
2022-08-26T22:31:50.882Z,20.77
2022-08-26T22:33:53.847Z,20.80
2022-08-26T22:35:56.959Z,20.54
2022-08-26T22:38:00.464Z,20.23
2022-08-26T22:40:03.826Z,20.01
2022-08-26T22:42:07.146Z,20.19
2022-08-26T22:44:11.560Z,20.24
2022-08-26T22:46:19.038Z,20.38
2022-08-26T22:48:24.221Z,20.19
2022-08-26T22:50:27.311Z,20.69
2022-08-26T22:52:30.057Z,20.76
2022-08-26T22:54:32.978Z,20.15
2022-08-26T22:56:36.828Z,20.83
2022-08-26T22:58:39.843Z,21.04
2022-08-26T23:00:43.135Z,20.86
2022-08-26T23:02:48.205Z,20.69
2022-08-26T23:04:51.163Z,20.56
2022-08-26T23:06:53.960Z,20.47
2022-08-26T23:08:56.705Z,20.72
2022-08-26T23:10:59.427Z,20.77
2022-08-26T23:13:04.174Z,20.54
2022-08-26T23:15:09.138Z,20.70
2022-08-26T23:17:14.286Z,20.84
2022-08-26T23:19:20.528Z,20.80
2022-08-26T23:21:23.349Z,20.90
2022-08-26T23:23:27.582Z,20.93
2022-08-26T23:25:32.307Z,20.76
2022-08-26T23:27:35.690Z,20.83
2022-08-26T23:29:39.606Z,20.78
2022-08-26T23:31:43.571Z,20.78
2022-08-26T23:34:04.262Z,20.76
2022-08-26T23:36:09.571Z,20.67
2022-08-26T23:38:14.247Z,20.58
2022-08-26T23:40:20.445Z,20.66
2022-08-26T23:42:23.338Z,20.56
2022-08-26T23:44:26.623Z,20.58
2022-08-26T23:46:29.438Z,20.64
2022-08-26T23:48:32.340Z,20.64
2022-08-26T23:50:52.884Z,20.53
2022-08-26T23:53:08.967Z,20.52
2022-08-26T23:55:13.293Z,20.31
2022-08-26T23:57:17.610Z,20.08
2022-08-26T23:59:20.604Z,20.09
